createdAt,value
2018-12-31T00:01:50.898Z,6.22
2018-12-31T00:05:08.144Z,6.37
2018-12-31T00:08:15.391Z,6.09
2018-12-31T00:11:21.044Z,6.06
2018-12-31T00:14:26.688Z,6.19
2018-12-31T00:17:43.319Z,6.46
2018-12-31T00:20:50.569Z,6.39
2018-12-31T00:23:57.818Z,6.39
2018-12-31T00:27:03.434Z,6.16
2018-12-31T00:30:20.165Z,6.43
2018-12-31T00:33:27.297Z,6.29
2018-12-31T00:36:34.600Z,6.16
2018-12-31T00:39:51.280Z,6.28
2018-12-31T00:42:59.189Z,6.16
2018-12-31T00:46:06.562Z,6.14
2018-12-31T00:49:13.802Z,5.82
2018-12-31T00:52:21.028Z,5.92
2018-12-31T00:55:28.183Z,6.04
2018-12-31T00:58:35.433Z,5.83
2018-12-31T01:01:42.599Z,5.92
2018-12-31T01:04:48.686Z,5.87
2018-12-31T01:07:55.994Z,5.98
2018-12-31T01:11:03.243Z,5.77
2018-12-31T01:14:08.950Z,5.72
2018-12-31T01:17:16.111Z,5.84
2018-12-31T01:20:23.330Z,5.93
2018-12-31T01:23:30.476Z,5.98
2018-12-31T01:26:37.785Z,5.88
2018-12-31T01:29:54.470Z,6.00
2018-12-31T01:33:01.604Z,6.03
2018-12-31T01:36:08.847Z,5.90
2018-12-31T01:39:16.881Z,5.85
2018-12-31T01:42:24.124Z,5.74
2018-12-31T01:45:31.434Z,5.78
2018-12-31T01:48:38.786Z,5.84
2018-12-31T01:51:46.033Z,5.68
2018-12-31T01:54:53.348Z,5.69
2018-12-31T01:58:00.487Z,5.79
2018-12-31T02:01:07.804Z,5.82
2018-12-31T02:04:15.035Z,5.88
2018-12-31T02:07:22.283Z,5.96
2018-12-31T02:10:29.439Z,6.05
2018-12-31T02:13:36.672Z,6.16
2018-12-31T02:16:43.916Z,5.95
2018-12-31T02:19:51.162Z,5.87
2018-12-31T02:22:58.423Z,5.87
2018-12-31T02:26:05.151Z,5.92
2018-12-31T02:29:12.407Z,5.98
2018-12-31T02:32:19.645Z,6.09
2018-12-31T02:35:26.955Z,5.89
2018-12-31T02:38:34.218Z,5.93
2018-12-31T02:41:41.515Z,5.95
2018-12-31T02:44:48.830Z,5.82
2018-12-31T02:47:56.074Z,5.93
2018-12-31T02:51:03.316Z,6.11
2018-12-31T02:54:10.568Z,5.95
2018-12-31T02:57:27.328Z,5.97
2018-12-31T03:00:44.067Z,6.24
2018-12-31T03:03:51.262Z,5.86
2018-12-31T03:06:58.609Z,6.04
2018-12-31T03:10:15.293Z,5.91
2018-12-31T03:13:32.318Z,6.03
2018-12-31T03:16:48.800Z,5.86
2018-12-31T03:19:56.056Z,5.90
2018-12-31T03:23:03.188Z,6.11
2018-12-31T03:26:19.981Z,5.97
2018-12-31T03:29:27.286Z,5.86
2018-12-31T03:32:50.046Z,6.06
2018-12-31T03:35:57.186Z,5.95
2018-12-31T03:39:13.951Z,5.97
2018-12-31T03:42:21.268Z,6.11
2018-12-31T03:45:37.934Z,5.94
2018-12-31T03:48:45.182Z,5.80
2018-12-31T03:52:01.997Z,5.80
2018-12-31T03:55:18.697Z,5.94
2018-12-31T03:58:25.939Z,5.89
2018-12-31T04:01:33.607Z,5.78
2018-12-31T04:04:40.858Z,5.76
2018-12-31T04:07:52.994Z,5.61
2018-12-31T04:10:57.105Z,5.91
2018-12-31T04:14:04.709Z,5.85
2018-12-31T04:17:11.960Z,5.79
2018-12-31T04:20:19.277Z,5.79
2018-12-31T04:23:26.588Z,5.91
2018-12-31T04:26:33.908Z,5.74
2018-12-31T04:29:41.059Z,5.64
2018-12-31T04:32:48.295Z,5.65
2018-12-31T04:35:55.522Z,5.62
2018-12-31T04:39:04.707Z,5.80
2018-12-31T04:42:21.082Z,5.80
2018-12-31T04:45:37.881Z,6.06
2018-12-31T04:48:45.145Z,5.98
2018-12-31T04:51:52.709Z,5.90
2018-12-31T04:55:09.141Z,6.15
2018-12-31T04:58:25.859Z,5.92
2018-12-31T05:01:33.093Z,5.79
2018-12-31T05:04:40.238Z,5.83
2018-12-31T05:07:57.064Z,5.89
2018-12-31T05:11:04.598Z,5.84
2018-12-31T05:14:21.065Z,5.84
2018-12-31T05:17:28.629Z,6.16
2018-12-31T05:20:45.422Z,6.11
2018-12-31T05:24:01.812Z,5.99
2018-12-31T05:27:09.072Z,5.82
2018-12-31T05:30:16.388Z,5.78
2018-12-31T05:33:33.002Z,5.97
2018-12-31T05:36:40.259Z,6.17
2018-12-31T05:39:47.467Z,6.01
2018-12-31T05:42:54.781Z,5.93
2018-12-31T05:46:17.695Z,5.94
2018-12-31T05:49:34.280Z,6.15
2018-12-31T05:52:51.070Z,6.01
2018-12-31T05:56:07.792Z,5.76
2018-12-31T05:59:15.045Z,5.94
2018-12-31T06:02:31.835Z,5.98
2018-12-31T06:05:48.562Z,5.81
2018-12-31T06:08:55.775Z,5.83
2018-12-31T06:12:03.102Z,5.79
2018-12-31T06:15:19.828Z,5.84
2018-12-31T06:18:26.993Z,5.88
2018-12-31T06:21:34.219Z,5.87
2018-12-31T06:24:41.365Z,5.83
2018-12-31T06:27:48.681Z,5.74
2018-12-31T06:30:55.903Z,5.74
2018-12-31T06:34:12.542Z,5.89
2018-12-31T06:37:19.792Z,5.80
2018-12-31T06:40:28.585Z,5.87
2018-12-31T06:43:45.630Z,5.96
2018-12-31T06:47:02.164Z,6.06
2018-12-31T06:50:09.459Z,5.78
2018-12-31T06:53:26.119Z,5.95
2018-12-31T06:56:42.893Z,6.08
2018-12-31T06:59:50.385Z,5.79
2018-12-31T07:03:06.984Z,6.02
2018-12-31T07:06:14.302Z,5.77
2018-12-31T07:09:31.496Z,5.83
2018-12-31T07:12:48.004Z,5.99
2018-12-31T07:15:55.258Z,5.95
2018-12-31T07:19:11.978Z,5.89
2018-12-31T07:22:18.359Z,5.91
2018-12-31T07:25:25.624Z,5.92
2018-12-31T07:28:32.777Z,6.08
2018-12-31T07:31:40.065Z,5.93
2018-12-31T07:34:47.463Z,6.17
2018-12-31T07:37:54.787Z,5.95
2018-12-31T07:41:02.149Z,6.03
2018-12-31T07:44:09.369Z,6.04
2018-12-31T07:47:16.580Z,6.23
2018-12-31T07:50:23.034Z,6.16
2018-12-31T07:53:30.285Z,6.00
2018-12-31T07:56:37.535Z,5.85
2018-12-31T07:59:44.684Z,6.12
2018-12-31T08:02:51.913Z,5.92
2018-12-31T08:05:59.129Z,5.93
2018-12-31T08:09:07.255Z,6.21
2018-12-31T08:12:14.408Z,6.22
2018-12-31T08:15:21.903Z,6.38
2018-12-31T08:18:38.374Z,6.18
2018-12-31T08:21:45.707Z,6.33
2018-12-31T08:25:02.437Z,6.41
2018-12-31T08:28:19.233Z,6.22
2018-12-31T08:31:35.991Z,6.31
2018-12-31T08:34:43.236Z,6.33
2018-12-31T08:37:50.467Z,6.30
2018-12-31T08:40:57.916Z,6.43
2018-12-31T08:44:16.848Z,6.60
2018-12-31T08:47:24.092Z,6.48
2018-12-31T08:50:31.227Z,6.43
2018-12-31T08:53:38.834Z,6.83
2018-12-31T08:56:45.583Z,6.68
2018-12-31T08:59:51.127Z,6.84
2018-12-31T09:02:58.261Z,6.84
2018-12-31T09:06:10.328Z,6.76
2018-12-31T09:09:16.660Z,6.86
2018-12-31T09:12:23.816Z,6.77
2018-12-31T09:15:31.148Z,6.79
2018-12-31T09:18:38.541Z,6.99
2018-12-31T09:21:45.874Z,6.91
2018-12-31T09:24:53.422Z,7.06
2018-12-31T09:28:00.645Z,6.90
2018-12-31T09:31:07.961Z,6.98
2018-12-31T09:34:15.283Z,7.09
2018-12-31T09:37:20.829Z,7.03
2018-12-31T09:40:28.447Z,7.19
2018-12-31T09:43:44.832Z,6.98
2018-12-31T09:47:07.644Z,7.07
2018-12-31T09:50:24.505Z,7.13
2018-12-31T09:53:31.669Z,7.28
2018-12-31T09:56:51.058Z,7.36
2018-12-31T10:00:08.258Z,7.28
2018-12-31T10:03:15.497Z,7.21
2018-12-31T10:06:22.631Z,7.07
2018-12-31T10:09:29.949Z,7.08
2018-12-31T10:12:37.368Z,7.13
2018-12-31T10:15:44.175Z,7.14
2018-12-31T10:18:51.516Z,7.20
2018-12-31T10:21:59.051Z,7.12
2018-12-31T10:25:06.408Z,7.13
2018-12-31T10:28:13.743Z,7.33
2018-12-31T10:31:20.995Z,7.33
2018-12-31T10:34:29.765Z,7.27
2018-12-31T10:37:37.067Z,7.30
2018-12-31T10:40:44.418Z,7.42
2018-12-31T10:43:51.665Z,7.50
2018-12-31T10:57:15.048Z,7.60
2018-12-31T11:00:50.143Z,7.77
2018-12-31T11:04:12.807Z,7.76
2018-12-31T11:07:19.952Z,7.61
2018-12-31T11:10:27.278Z,7.51
2018-12-31T11:13:47.610Z,7.71
2018-12-31T11:17:21.932Z,7.83
2018-12-31T11:20:38.756Z,7.58
2018-12-31T11:24:05.669Z,7.64
2018-12-31T11:27:12.928Z,7.61
2018-12-31T11:30:20.065Z,7.61
2018-12-31T11:33:27.392Z,7.62
2018-12-31T11:36:33.479Z,7.51
2018-12-31T11:39:50.303Z,7.84
2018-12-31T11:43:06.874Z,7.68
2018-12-31T11:46:23.691Z,7.91
2018-12-31T11:49:40.372Z,7.64
2018-12-31T11:52:47.781Z,7.62
2018-12-31T11:56:10.127Z,7.70
2018-12-31T12:38:56.571Z,7.77
2018-12-31T12:42:03.874Z,7.90
2018-12-31T12:45:22.653Z,8.02
2018-12-31T12:48:39.254Z,7.84
2018-12-31T12:51:56.405Z,7.97
2018-12-31T12:55:12.913Z,7.76
2018-12-31T12:58:29.643Z,7.77
2018-12-31T13:01:36.874Z,7.85
2018-12-31T13:04:44.434Z,7.65
2018-12-31T13:08:00.893Z,7.84
2018-12-31T13:11:17.767Z,7.84
2018-12-31T13:14:40.829Z,7.67
2018-12-31T13:17:57.370Z,7.78
2018-12-31T13:21:14.005Z,7.90
2018-12-31T13:24:21.353Z,7.79
2018-12-31T13:27:38.009Z,7.89
2018-12-31T13:30:54.845Z,7.75
2018-12-31T13:34:11.569Z,7.90
2018-12-31T13:37:18.807Z,7.74
2018-12-31T13:40:26.032Z,7.75
2018-12-31T13:43:33.203Z,7.82
2018-12-31T13:46:49.941Z,7.97
2018-12-31T13:49:57.075Z,7.81
2018-12-31T13:53:04.260Z,7.88
2018-12-31T13:56:11.479Z,7.84
2018-12-31T13:59:18.779Z,7.90
2018-12-31T14:02:35.543Z,7.76
2018-12-31T14:05:42.775Z,7.86
2018-12-31T14:08:50.012Z,7.84
2018-12-31T14:12:08.514Z,7.86
2018-12-31T14:15:24.845Z,7.91
2018-12-31T14:18:30.475Z,7.80
2018-12-31T14:21:38.027Z,7.86
2018-12-31T14:24:54.450Z,7.85
2018-12-31T14:28:01.674Z,7.89
2018-12-31T14:31:09.067Z,7.74
2018-12-31T14:34:25.890Z,7.94
2018-12-31T14:37:42.621Z,7.93
2018-12-31T14:40:49.851Z,7.93
2018-12-31T14:44:06.717Z,8.01
2018-12-31T14:47:23.567Z,7.89
2018-12-31T14:50:40.385Z,7.96
2018-12-31T14:53:57.080Z,8.10
2018-12-31T14:57:04.386Z,7.98
2018-12-31T15:00:21.062Z,8.02
2018-12-31T15:03:37.903Z,7.96
2018-12-31T15:06:54.636Z,8.05
2018-12-31T15:10:01.930Z,7.95
2018-12-31T15:13:18.608Z,8.14
2018-12-31T15:16:25.815Z,8.00
2018-12-31T15:19:33.042Z,8.01
2018-12-31T15:22:40.277Z,8.02
2018-12-31T15:25:47.411Z,8.01
2018-12-31T15:28:54.641Z,8.06
2018-12-31T15:32:11.471Z,8.08
2018-12-31T15:35:28.861Z,8.11
2018-12-31T15:38:36.267Z,8.10
2018-12-31T15:41:43.764Z,8.10
2018-12-31T15:44:51.273Z,8.14
2018-12-31T15:47:58.695Z,8.10
2018-12-31T15:51:15.917Z,8.18
2018-12-31T15:54:32.128Z,8.29
2018-12-31T15:57:39.477Z,8.02
2018-12-31T16:00:46.606Z,8.06
2018-12-31T16:04:03.393Z,8.15
2018-12-31T16:07:09.528Z,8.16
2018-12-31T16:10:16.679Z,8.11
2018-12-31T16:13:24.583Z,8.15
2018-12-31T16:16:31.858Z,8.17
2018-12-31T16:19:39.142Z,8.13
2018-12-31T16:22:47.185Z,8.15
2018-12-31T16:25:54.501Z,8.20
2018-12-31T16:29:01.816Z,8.26
2018-12-31T16:32:09.061Z,8.11
2018-12-31T16:35:16.292Z,8.31
2018-12-31T16:38:23.553Z,8.16
2018-12-31T16:41:30.689Z,8.22
2018-12-31T16:44:38.129Z,8.23
2018-12-31T16:47:45.351Z,8.18
2018-12-31T16:50:52.679Z,8.30
2018-12-31T16:53:59.812Z,8.23
2018-12-31T16:57:06.951Z,8.18
2018-12-31T17:00:14.331Z,8.09
2018-12-31T17:03:21.567Z,8.21
2018-12-31T17:06:38.526Z,8.15
2018-12-31T17:09:45.833Z,8.24
2018-12-31T17:13:02.511Z,8.23
2018-12-31T17:16:19.201Z,8.15
2018-12-31T17:19:26.335Z,8.24
2018-12-31T17:22:33.558Z,8.28
2018-12-31T17:25:40.784Z,8.15
2018-12-31T17:28:48.011Z,8.22
2018-12-31T17:31:55.256Z,8.19
2018-12-31T17:35:02.468Z,8.28
2018-12-31T17:38:19.166Z,8.18
2018-12-31T17:41:26.413Z,8.18
2018-12-31T17:44:34.643Z,8.21
2018-12-31T17:47:41.789Z,8.23
2018-12-31T17:50:49.008Z,8.23
2018-12-31T17:53:55.493Z,8.11
2018-12-31T17:57:11.953Z,8.11
2018-12-31T18:00:19.140Z,8.23
2018-12-31T18:03:35.913Z,8.20
2018-12-31T18:06:43.049Z,8.11
2018-12-31T18:09:59.894Z,8.09
2018-12-31T18:13:07.145Z,7.94
2018-12-31T18:16:14.275Z,7.96
2018-12-31T18:19:21.483Z,7.89
2018-12-31T18:22:28.620Z,7.86
2018-12-31T18:25:45.445Z,7.93
2018-12-31T18:28:52.679Z,7.89
2018-12-31T18:31:59.982Z,7.92
2018-12-31T18:35:16.712Z,7.74
2018-12-31T18:38:33.377Z,7.91
2018-12-31T18:41:50.225Z,7.76
2018-12-31T18:44:56.702Z,7.79
2018-12-31T18:48:04.036Z,7.88
2018-12-31T18:51:11.355Z,7.83
2018-12-31T18:54:18.588Z,7.76
2018-12-31T18:57:25.722Z,7.83
2018-12-31T19:00:32.847Z,7.77
2018-12-31T19:03:39.980Z,7.74
2018-12-31T19:06:47.225Z,7.92
2018-12-31T19:09:54.492Z,7.81
2018-12-31T19:13:01.733Z,7.97
2018-12-31T19:16:10.862Z,7.94
2018-12-31T19:19:18.098Z,8.12
2018-12-31T19:22:25.397Z,7.98
2018-12-31T19:25:32.544Z,8.00
2018-12-31T19:31:15.907Z,7.94
2018-12-31T19:34:23.152Z,8.02
2018-12-31T19:37:30.392Z,7.96
2018-12-31T19:40:36.558Z,7.99
2018-12-31T19:43:44.112Z,8.05
2018-12-31T19:46:51.430Z,8.04
2018-12-31T19:49:58.672Z,8.07
2018-12-31T19:53:06.118Z,8.11
2018-12-31T19:56:23.363Z,8.15
2018-12-31T19:59:40.387Z,8.19
2018-12-31T20:02:56.902Z,8.19
2018-12-31T20:06:04.207Z,8.13
2018-12-31T20:09:20.897Z,8.22
2018-12-31T20:12:26.523Z,8.08
2018-12-31T20:15:48.591Z,8.13
2018-12-31T20:19:01.685Z,8.13
2018-12-31T20:22:08.931Z,8.02
2018-12-31T20:25:16.159Z,7.97
2018-12-31T20:28:32.957Z,7.99
2018-12-31T20:31:40.093Z,7.98
2018-12-31T20:34:56.858Z,7.77
2018-12-31T20:38:04.400Z,7.74
2018-12-31T20:41:21.128Z,7.79
2018-12-31T20:44:37.734Z,7.72
2018-12-31T20:48:01.636Z,7.76
2018-12-31T20:51:03.960Z,7.63
2018-12-31T20:54:11.412Z,7.60
2018-12-31T20:57:18.639Z,7.71
2018-12-31T21:00:26.039Z,7.59
2018-12-31T21:03:33.174Z,7.67
2018-12-31T21:06:40.409Z,7.66
2018-12-31T21:09:47.947Z,7.54
2018-12-31T21:12:55.077Z,7.54
2018-12-31T21:16:02.451Z,7.51
2018-12-31T21:19:09.675Z,7.68
2018-12-31T21:22:16.923Z,7.67
2018-12-31T21:25:24.205Z,7.65
2018-12-31T21:28:40.883Z,7.80
2018-12-31T21:31:48.119Z,7.73
2018-12-31T21:35:05.349Z,7.80
2018-12-31T21:38:21.747Z,7.87
2018-12-31T21:41:38.521Z,7.81
2018-12-31T21:44:57.805Z,7.81
2018-12-31T21:48:05.008Z,7.78
2018-12-31T21:51:21.998Z,7.96
2018-12-31T21:54:29.232Z,7.95
2018-12-31T21:57:45.938Z,7.92
2018-12-31T22:00:53.292Z,7.84
2018-12-31T22:04:09.964Z,8.01
2018-12-31T22:07:17.423Z,7.90
2018-12-31T22:10:36.468Z,8.04
2018-12-31T22:13:43.979Z,8.03
2018-12-31T22:17:00.526Z,7.99
2018-12-31T22:20:20.091Z,7.97
2018-12-31T22:23:36.620Z,7.85
2018-12-31T22:26:53.347Z,7.94
2018-12-31T22:30:00.665Z,7.79
2018-12-31T22:33:07.873Z,7.76
2018-12-31T22:36:24.590Z,7.85
2018-12-31T22:39:41.333Z,7.72
2018-12-31T22:42:48.513Z,7.60
2018-12-31T22:45:55.668Z,7.70
2018-12-31T22:49:03.578Z,7.66
2018-12-31T22:52:10.889Z,7.59
2018-12-31T22:55:18.047Z,7.73
2018-12-31T22:58:25.331Z,7.67
2018-12-31T23:01:32.653Z,7.65
2018-12-31T23:04:40.201Z,7.67
2018-12-31T23:07:47.712Z,7.74
2018-12-31T23:10:54.915Z,7.74
2018-12-31T23:14:02.087Z,7.82
2018-12-31T23:17:11.627Z,7.65
2018-12-31T23:21:07.693Z,7.75
2018-12-31T23:24:14.946Z,7.69
2018-12-31T23:27:32.526Z,7.76
2018-12-31T23:30:38.338Z,7.74
2018-12-31T23:33:45.683Z,7.68
2018-12-31T23:36:53.053Z,7.63
2018-12-31T23:40:00.259Z,7.58
2018-12-31T23:43:07.588Z,7.58
2018-12-31T23:46:15.158Z,7.55
2018-12-31T23:49:22.394Z,7.53
2018-12-31T23:52:29.616Z,7.57
2018-12-31T23:55:36.857Z,7.52
2018-12-31T23:58:54.246Z,7.57
